EFW8CQ GCTS-EGKK
Flight info
| Callsign | EFW8CQ |
|---|---|
| Flight time | N/A |
| Altitude | 34000 |
| Route | BIMBO1E BIMBO DCT TELMU DCT XANEL DCT DEMOS DCT KORUL DCT FEJAC DCT JSY DCT REVTU DCT ODREP UP88 VASUX VASUX1G |
| Aircraft | A321/M-SDE3FGIJ1KRWXY/SB1 |
Departure
| Time | N/A |
|---|---|
| Airport | Tenerife Sur Airport (GCTS) |
Arrival
| Time | 2026-05-03 22:18 |
|---|---|
| Airport | London Gatwick Airport (EGKK) |
| Time | Latitude | Longitude | Altitude | Speed | Heading |
|---|---|---|---|---|---|
| 2026-05-03 20:15 | 39.19112 | -12.34187 | 34159 ft | 479 kts | 21° |
| 2026-05-03 20:15 | 39.25058 | -12.30307 | 34143 ft | 479 kts | 21° |
| 2026-05-03 20:16 | 39.31004 | -12.26438 | 34129 ft | 479 kts | 21° |
| 2026-05-03 20:16 | 39.36950 | -12.22562 | 34138 ft | 479 kts | 21° |
| 2026-05-03 20:17 | 39.42596 | -12.17935 | 34142 ft | 485 kts | 36° |
| 2026-05-03 20:17 | 39.47780 | -12.12342 | 34138 ft | 485 kts | 36° |
| 2026-05-03 20:18 | 39.52972 | -12.06755 | 34134 ft | 485 kts | 35° |
| 2026-05-03 20:18 | 39.58167 | -12.01170 | 34125 ft | 486 kts | 36° |
| 2026-05-03 20:19 | 39.63374 | -11.95566 | 34112 ft | 487 kts | 36° |
| 2026-05-03 20:19 | 39.68581 | -11.89929 | 34136 ft | 488 kts | 36° |
| 2026-05-03 20:20 | 39.73795 | -11.84287 | 34132 ft | 488 kts | 36° |
| 2026-05-03 20:20 | 39.79007 | -11.78647 | 34131 ft | 488 kts | 36° |
| 2026-05-03 20:21 | 39.84206 | -11.72986 | 34127 ft | 488 kts | 36° |
| 2026-05-03 20:21 | 39.89402 | -11.67307 | 34145 ft | 487 kts | 36° |
| 2026-05-03 20:22 | 39.94595 | -11.61637 | 34135 ft | 487 kts | 36° |
| 2026-05-03 20:22 | 39.99777 | -11.55970 | 34129 ft | 486 kts | 36° |
| 2026-05-03 20:23 | 40.04953 | -11.50296 | 34122 ft | 486 kts | 36° |
| 2026-05-03 20:23 | 40.10127 | -11.44610 | 34121 ft | 486 kts | 36° |
| 2026-05-03 20:24 | 40.15294 | -11.38918 | 34121 ft | 486 kts | 36° |
| 2026-05-03 20:24 | 40.20459 | -11.33217 | 34120 ft | 486 kts | 36° |
| 2026-05-03 20:25 | 40.25627 | -11.27501 | 34101 ft | 487 kts | 37° |
| 2026-05-03 20:25 | 40.30802 | -11.21768 | 34096 ft | 488 kts | 37° |
| 2026-05-03 20:26 | 40.35987 | -11.16017 | 34099 ft | 489 kts | 37° |
| 2026-05-03 20:26 | 40.41177 | -11.10254 | 34130 ft | 488 kts | 37° |
| 2026-05-03 20:27 | 40.46350 | -11.04481 | 34125 ft | 488 kts | 37° |
| 2026-05-03 20:27 | 40.51512 | -10.98701 | 34119 ft | 487 kts | 37° |
| 2026-05-03 20:28 | 40.56639 | -10.92959 | 34119 ft | 487 kts | 37° |
| 2026-05-03 20:28 | 40.61808 | -10.87163 | 34106 ft | 489 kts | 37° |
| 2026-05-03 20:29 | 40.66981 | -10.81351 | 34120 ft | 489 kts | 37° |
| 2026-05-03 20:29 | 40.72150 | -10.75531 | 34119 ft | 489 kts | 37° |
| 2026-05-03 20:30 | 40.77317 | -10.69696 | 34109 ft | 489 kts | 38° |
| 2026-05-03 20:30 | 40.82475 | -10.63847 | 34112 ft | 489 kts | 38° |
| 2026-05-03 20:31 | 40.87632 | -10.57986 | 34136 ft | 489 kts | 38° |
| 2026-05-03 20:31 | 40.92795 | -10.52127 | 34104 ft | 489 kts | 38° |
| 2026-05-03 20:32 | 40.97955 | -10.46262 | 34105 ft | 490 kts | 38° |
| 2026-05-03 20:32 | 41.03116 | -10.40375 | 34102 ft | 490 kts | 38° |
| 2026-05-03 20:33 | 41.08274 | -10.34472 | 34104 ft | 490 kts | 38° |
| 2026-05-03 20:33 | 41.13430 | -10.28555 | 34121 ft | 490 kts | 38° |
| 2026-05-03 20:34 | 41.18574 | -10.22651 | 34110 ft | 489 kts | 38° |
| 2026-05-03 20:34 | 41.23716 | -10.16748 | 34097 ft | 489 kts | 38° |
| 2026-05-03 20:35 | 41.28851 | -10.10823 | 34092 ft | 489 kts | 38° |
| 2026-05-03 20:35 | 41.33988 | -10.04885 | 34107 ft | 489 kts | 39° |
| 2026-05-03 20:36 | 41.39118 | -9.98932 | 34103 ft | 489 kts | 39° |
| 2026-05-03 20:36 | 41.44242 | -9.92976 | 34094 ft | 489 kts | 39° |
| 2026-05-03 20:37 | 41.49360 | -9.87021 | 34092 ft | 488 kts | 39° |
| 2026-05-03 20:37 | 41.54476 | -9.81051 | 34089 ft | 489 kts | 39° |
| 2026-05-03 20:38 | 41.58728 | -9.76084 | 34100 ft | 489 kts | 39° |
| 2026-05-03 20:38 | 41.63840 | -9.70108 | 34092 ft | 488 kts | 39° |
| 2026-05-03 20:39 | 41.68944 | -9.64120 | 34086 ft | 488 kts | 39° |
| 2026-05-03 20:39 | 41.74873 | -9.57145 | 34086 ft | 488 kts | 39° |
| 2026-05-03 20:40 | 41.79141 | -9.52106 | 34083 ft | 488 kts | 39° |
| 2026-05-03 20:40 | 41.84231 | -9.46077 | 34089 ft | 488 kts | 39° |
| 2026-05-03 20:41 | 41.89314 | -9.40052 | 34084 ft | 488 kts | 39° |
| 2026-05-03 20:41 | 41.94663 | -9.34527 | 34078 ft | 483 kts | 28° |
| 2026-05-03 20:42 | 42.00461 | -9.29944 | 34076 ft | 483 kts | 28° |
| 2026-05-03 20:42 | 42.06249 | -9.25335 | 34084 ft | 483 kts | 28° |
| 2026-05-03 20:43 | 42.11988 | -9.20746 | 34081 ft | 483 kts | 28° |
| 2026-05-03 20:43 | 42.17765 | -9.16123 | 34079 ft | 483 kts | 28° |
| 2026-05-03 20:44 | 42.23535 | -9.11493 | 34061 ft | 482 kts | 28° |
| 2026-05-03 20:44 | 42.29299 | -9.06865 | 34076 ft | 482 kts | 28° |
| 2026-05-03 20:45 | 42.35101 | -9.02193 | 34054 ft | 482 kts | 28° |
| 2026-05-03 20:45 | 42.40864 | -8.97541 | 34064 ft | 483 kts | 28° |
| 2026-05-03 20:46 | 42.46633 | -8.92885 | 34065 ft | 483 kts | 28° |
| 2026-05-03 20:46 | 42.52401 | -8.88214 | 34055 ft | 483 kts | 28° |
| 2026-05-03 20:47 | 42.58166 | -8.83523 | 34072 ft | 483 kts | 28° |
| 2026-05-03 20:47 | 42.63927 | -8.78832 | 34066 ft | 483 kts | 28° |
| 2026-05-03 20:48 | 42.69690 | -8.74138 | 34082 ft | 483 kts | 29° |
| 2026-05-03 20:48 | 42.75442 | -8.69435 | 34061 ft | 483 kts | 29° |
| 2026-05-03 20:49 | 42.81195 | -8.64714 | 34056 ft | 483 kts | 29° |
| 2026-05-03 20:49 | 42.86958 | -8.59982 | 34057 ft | 484 kts | 29° |
| 2026-05-03 20:50 | 42.92721 | -8.55245 | 34069 ft | 484 kts | 29° |
| 2026-05-03 20:50 | 42.98482 | -8.50497 | 34067 ft | 484 kts | 29° |
| 2026-05-03 20:51 | 43.04242 | -8.45741 | 34065 ft | 483 kts | 29° |
| 2026-05-03 20:51 | 43.09988 | -8.40978 | 34071 ft | 483 kts | 29° |
| 2026-05-03 20:52 | 43.15736 | -8.36199 | 34084 ft | 483 kts | 29° |
| 2026-05-03 20:52 | 43.21438 | -8.31456 | 34079 ft | 482 kts | 29° |
| 2026-05-03 20:53 | 43.27208 | -8.26642 | 34075 ft | 482 kts | 30° |
| 2026-05-03 20:53 | 43.32944 | -8.21841 | 34071 ft | 482 kts | 30° |
| 2026-05-03 20:54 | 43.38678 | -8.17045 | 34079 ft | 482 kts | 30° |
| 2026-05-03 20:54 | 43.47266 | -8.09840 | 34072 ft | 482 kts | 30° |
| 2026-05-03 20:55 | 43.52988 | -8.05024 | 34067 ft | 482 kts | 30° |
| 2026-05-03 20:55 | 43.58703 | -8.00194 | 34074 ft | 482 kts | 30° |
| 2026-05-03 20:56 | 43.64415 | -7.95348 | 34070 ft | 482 kts | 30° |
| 2026-05-03 20:56 | 43.70084 | -7.90539 | 34068 ft | 481 kts | 30° |
| 2026-05-03 20:57 | 43.75792 | -7.85696 | 34064 ft | 481 kts | 30° |
| 2026-05-03 20:57 | 43.81492 | -7.80847 | 34070 ft | 481 kts | 30° |
| 2026-05-03 20:58 | 43.87186 | -7.75985 | 34065 ft | 480 kts | 30° |
| 2026-05-03 20:58 | 43.92867 | -7.71126 | 34064 ft | 480 kts | 30° |
| 2026-05-03 20:59 | 43.98545 | -7.66255 | 34068 ft | 480 kts | 30° |
| 2026-05-03 20:59 | 44.04219 | -7.61371 | 34064 ft | 479 kts | 30° |
| 2026-05-03 21:00 | 44.08929 | -7.57305 | 34052 ft | 480 kts | 30° |
| 2026-05-03 21:00 | 44.15565 | -7.51573 | 34041 ft | 481 kts | 30° |
| 2026-05-03 21:01 | 44.21255 | -7.46648 | 34053 ft | 481 kts | 30° |
| 2026-05-03 21:01 | 44.26944 | -7.41711 | 34047 ft | 482 kts | 30° |
| 2026-05-03 21:02 | 44.32634 | -7.36765 | 34048 ft | 482 kts | 30° |
| 2026-05-03 21:02 | 44.38318 | -7.31807 | 34056 ft | 482 kts | 30° |
| 2026-05-03 21:03 | 44.44003 | -7.26840 | 34055 ft | 481 kts | 31° |
| 2026-05-03 21:03 | 44.49676 | -7.21867 | 34046 ft | 481 kts | 31° |
| 2026-05-03 21:04 | 44.55353 | -7.16884 | 34034 ft | 482 kts | 31° |
| 2026-05-03 21:04 | 44.61000 | -7.11912 | 34028 ft | 483 kts | 31° |
| 2026-05-03 21:05 | 44.66693 | -7.06893 | 34033 ft | 483 kts | 31° |
| 2026-05-03 21:05 | 44.72385 | -7.01862 | 34035 ft | 484 kts | 31° |
| 2026-05-03 21:06 | 44.78083 | -6.96817 | 34039 ft | 484 kts | 31° |
| 2026-05-03 21:06 | 44.83773 | -6.91753 | 34043 ft | 484 kts | 32° |
| 2026-05-03 21:07 | 44.89319 | -6.86383 | 34024 ft | 484 kts | 34° |
| 2026-05-03 21:07 | 44.94747 | -6.80762 | 34011 ft | 484 kts | 36° |
| 2026-05-03 21:08 | 45.00185 | -6.75125 | 34027 ft | 485 kts | 35° |
| 2026-05-03 21:08 | 45.05665 | -6.69559 | 34028 ft | 485 kts | 34° |
| 2026-05-03 21:09 | 45.11156 | -6.64015 | 34036 ft | 485 kts | 34° |
| 2026-05-03 21:09 | 45.16638 | -6.58448 | 34026 ft | 485 kts | 35° |
| 2026-05-03 21:10 | 45.22073 | -6.52896 | 34020 ft | 485 kts | 35° |
| 2026-05-03 21:10 | 45.27545 | -6.47297 | 34016 ft | 485 kts | 35° |
| 2026-05-03 21:11 | 45.33012 | -6.41666 | 34022 ft | 486 kts | 35° |
| 2026-05-03 21:11 | 45.38476 | -6.36017 | 34023 ft | 486 kts | 35° |
| 2026-05-03 21:12 | 45.43943 | -6.30370 | 34035 ft | 485 kts | 35° |
| 2026-05-03 21:12 | 45.49411 | -6.24732 | 34030 ft | 485 kts | 35° |
| 2026-05-03 21:13 | 45.54871 | -6.19085 | 34005 ft | 485 kts | 36° |
| 2026-05-03 21:13 | 45.60337 | -6.13409 | 34001 ft | 486 kts | 36° |
| 2026-05-03 21:14 | 45.65794 | -6.07712 | 34017 ft | 486 kts | 36° |
| 2026-05-03 21:14 | 45.71247 | -6.02002 | 34022 ft | 486 kts | 36° |
| 2026-05-03 21:15 | 45.76697 | -5.96291 | 34028 ft | 485 kts | 36° |
| 2026-05-03 21:15 | 45.82145 | -5.90581 | 34016 ft | 485 kts | 36° |
| 2026-05-03 21:16 | 45.87591 | -5.84861 | 34013 ft | 485 kts | 36° |
| 2026-05-03 21:16 | 45.93033 | -5.79115 | 34010 ft | 486 kts | 36° |
| 2026-05-03 21:17 | 45.97556 | -5.74335 | 34012 ft | 486 kts | 36° |
| 2026-05-03 21:17 | 46.03918 | -5.67592 | 34033 ft | 486 kts | 36° |
| 2026-05-03 21:18 | 46.09310 | -5.61855 | 34029 ft | 485 kts | 36° |
| 2026-05-03 21:18 | 46.14730 | -5.56072 | 33999 ft | 484 kts | 36° |
| 2026-05-03 21:19 | 46.20154 | -5.50278 | 33991 ft | 486 kts | 36° |
| 2026-05-03 21:19 | 46.25585 | -5.44472 | 34000 ft | 486 kts | 36° |
| 2026-05-03 21:20 | 46.31021 | -5.38646 | 34003 ft | 486 kts | 37° |
| 2026-05-03 21:20 | 46.36444 | -5.32797 | 34007 ft | 486 kts | 37° |
| 2026-05-03 21:21 | 46.41863 | -5.26934 | 34004 ft | 486 kts | 37° |
| 2026-05-03 21:21 | 46.47286 | -5.21077 | 33997 ft | 486 kts | 37° |
| 2026-05-03 21:22 | 46.52696 | -5.15209 | 34005 ft | 486 kts | 37° |
| 2026-05-03 21:22 | 46.58101 | -5.09327 | 34007 ft | 485 kts | 37° |
| 2026-05-03 21:23 | 46.63506 | -5.03438 | 34009 ft | 485 kts | 37° |
| 2026-05-03 21:23 | 46.68905 | -4.97541 | 34008 ft | 485 kts | 37° |
| 2026-05-03 21:24 | 46.74299 | -4.91638 | 34004 ft | 485 kts | 37° |
| 2026-05-03 21:24 | 46.79694 | -4.85721 | 33987 ft | 485 kts | 37° |
| 2026-05-03 21:25 | 46.84176 | -4.80787 | 33985 ft | 486 kts | 37° |
| 2026-05-03 21:25 | 46.90444 | -4.73852 | 34003 ft | 486 kts | 38° |
| 2026-05-03 21:26 | 46.95834 | -4.67880 | 34004 ft | 486 kts | 38° |
| 2026-05-03 21:26 | 47.00344 | -4.62871 | 34007 ft | 486 kts | 38° |
| 2026-05-03 21:27 | 47.05725 | -4.56889 | 34001 ft | 485 kts | 38° |
| 2026-05-03 21:27 | 47.11102 | -4.50905 | 34014 ft | 485 kts | 38° |
| 2026-05-03 21:28 | 47.16433 | -4.44939 | 33999 ft | 485 kts | 38° |
| 2026-05-03 21:28 | 47.21796 | -4.38924 | 33999 ft | 485 kts | 38° |
| 2026-05-03 21:29 | 47.27155 | -4.32910 | 34000 ft | 484 kts | 38° |
| 2026-05-03 21:29 | 47.32502 | -4.26881 | 34007 ft | 484 kts | 38° |
| 2026-05-03 21:30 | 47.37849 | -4.20837 | 33995 ft | 484 kts | 39° |
| 2026-05-03 21:30 | 47.43194 | -4.14777 | 33967 ft | 484 kts | 39° |
| 2026-05-03 21:31 | 47.48540 | -4.08714 | 33969 ft | 485 kts | 39° |
| 2026-05-03 21:31 | 47.53892 | -4.02619 | 33985 ft | 486 kts | 39° |
| 2026-05-03 21:32 | 47.59252 | -3.96498 | 33972 ft | 487 kts | 39° |
| 2026-05-03 21:32 | 47.64611 | -3.90354 | 33970 ft | 487 kts | 39° |
| 2026-05-03 21:33 | 47.69979 | -3.84192 | 33971 ft | 488 kts | 39° |
| 2026-05-03 21:33 | 47.75347 | -3.78013 | 33956 ft | 488 kts | 39° |
| 2026-05-03 21:34 | 47.80720 | -3.71816 | 33964 ft | 490 kts | 39° |
| 2026-05-03 21:34 | 47.86102 | -3.65592 | 33962 ft | 490 kts | 39° |
| 2026-05-03 21:35 | 47.91490 | -3.59338 | 33964 ft | 491 kts | 39° |
| 2026-05-03 21:35 | 47.96875 | -3.53075 | 33981 ft | 491 kts | 39° |
| 2026-05-03 21:36 | 48.02225 | -3.46836 | 33980 ft | 491 kts | 39° |
| 2026-05-03 21:36 | 48.07608 | -3.40542 | 33982 ft | 491 kts | 39° |
| 2026-05-03 21:37 | 48.13027 | -3.34179 | 33964 ft | 492 kts | 40° |
| 2026-05-03 21:37 | 48.18410 | -3.27836 | 33983 ft | 493 kts | 40° |
| 2026-05-03 21:38 | 48.23768 | -3.21523 | 33985 ft | 493 kts | 39° |
| 2026-05-03 21:38 | 48.29158 | -3.15160 | 33988 ft | 493 kts | 40° |
| 2026-05-03 21:39 | 48.34547 | -3.08777 | 33988 ft | 493 kts | 40° |
| 2026-05-03 21:39 | 48.39921 | -3.02370 | 33993 ft | 493 kts | 40° |
| 2026-05-03 21:40 | 48.45293 | -2.95946 | 33972 ft | 493 kts | 40° |
| 2026-05-03 21:40 | 48.50677 | -2.89508 | 33978 ft | 494 kts | 40° |
| 2026-05-03 21:41 | 48.56062 | -2.83056 | 33991 ft | 495 kts | 40° |
| 2026-05-03 21:41 | 48.61446 | -2.76579 | 33984 ft | 495 kts | 40° |
| 2026-05-03 21:42 | 48.66824 | -2.70093 | 33995 ft | 494 kts | 40° |
| 2026-05-03 21:42 | 48.72197 | -2.63600 | 33995 ft | 494 kts | 40° |
| 2026-05-03 21:43 | 48.77559 | -2.57095 | 33963 ft | 494 kts | 40° |
| 2026-05-03 21:43 | 48.82982 | -2.50644 | 33960 ft | 496 kts | 39° |
| 2026-05-03 21:44 | 48.88477 | -2.44287 | 33964 ft | 497 kts | 39° |
| 2026-05-03 21:44 | 48.93980 | -2.37907 | 33973 ft | 498 kts | 39° |
| 2026-05-03 21:45 | 48.99465 | -2.31477 | 33980 ft | 498 kts | 39° |
| 2026-05-03 21:45 | 49.04940 | -2.25012 | 33986 ft | 498 kts | 39° |
| 2026-05-03 21:46 | 49.10412 | -2.18531 | 33982 ft | 498 kts | 39° |
| 2026-05-03 21:46 | 49.15877 | -2.12036 | 33983 ft | 498 kts | 39° |
| 2026-05-03 21:47 | 49.21318 | -2.05595 | 33984 ft | 499 kts | 36° |
| 2026-05-03 21:47 | 49.27301 | -2.00217 | 33971 ft | 499 kts | 29° |
| 2026-05-03 21:48 | 49.33380 | -1.95076 | 33976 ft | 499 kts | 29° |
| 2026-05-03 21:48 | 49.39454 | -1.89924 | 33979 ft | 499 kts | 29° |
| 2026-05-03 21:49 | 49.45516 | -1.84756 | 33983 ft | 498 kts | 29° |
| 2026-05-03 21:49 | 49.51567 | -1.79575 | 33997 ft | 498 kts | 29° |
| 2026-05-03 21:50 | 49.57615 | -1.74372 | 33981 ft | 498 kts | 29° |
| 2026-05-03 21:50 | 49.63965 | -1.70214 | 33985 ft | 496 kts | 18° |
| 2026-05-03 21:51 | 49.70474 | -1.66639 | 33961 ft | 497 kts | 19° |
| 2026-05-03 21:51 | 49.73731 | -1.64842 | 33679 ft | 496 kts | 19° |
| 2026-05-03 21:51 | 49.76990 | -1.63038 | 32722 ft | 500 kts | 19° |
| 2026-05-03 21:52 | 49.80274 | -1.61217 | 31846 ft | 502 kts | 19° |
| 2026-05-03 21:52 | 49.83572 | -1.59382 | 30925 ft | 505 kts | 19° |
| 2026-05-03 21:52 | 49.86855 | -1.57548 | 30406 ft | 498 kts | 19° |
| 2026-05-03 21:52 | 49.90109 | -1.55731 | 29742 ft | 495 kts | 19° |
| 2026-05-03 21:53 | 49.93328 | -1.53932 | 29129 ft | 490 kts | 19° |
| 2026-05-03 21:53 | 49.96517 | -1.52148 | 28544 ft | 484 kts | 19° |
| 2026-05-03 21:53 | 49.99670 | -1.50383 | 27978 ft | 478 kts | 19° |
| 2026-05-03 21:53 | 50.02793 | -1.48699 | 27442 ft | 472 kts | 17° |
| 2026-05-03 21:54 | 50.05895 | -1.47142 | 26912 ft | 466 kts | 16° |
| 2026-05-03 21:54 | 50.08973 | -1.45675 | 26388 ft | 460 kts | 15° |
| 2026-05-03 21:54 | 50.12021 | -1.44253 | 25870 ft | 454 kts | 15° |
| 2026-05-03 21:54 | 50.15028 | -1.42844 | 25360 ft | 449 kts | 15° |
| 2026-05-03 21:55 | 50.17996 | -1.41428 | 24862 ft | 443 kts | 15° |
| 2026-05-03 21:55 | 50.20926 | -1.40005 | 24372 ft | 439 kts | 16° |
| 2026-05-03 21:55 | 50.23817 | -1.38581 | 23893 ft | 434 kts | 16° |
| 2026-05-03 21:55 | 50.26677 | -1.37164 | 23391 ft | 429 kts | 16° |
| 2026-05-03 21:56 | 50.29496 | -1.35764 | 22931 ft | 422 kts | 16° |
| 2026-05-03 21:56 | 50.32274 | -1.34384 | 22478 ft | 415 kts | 16° |
| 2026-05-03 21:56 | 50.35004 | -1.33030 | 22059 ft | 409 kts | 16° |
| 2026-05-03 21:56 | 50.37695 | -1.31698 | 21631 ft | 403 kts | 16° |
| 2026-05-03 21:57 | 50.40350 | -1.30385 | 21211 ft | 397 kts | 16° |
| 2026-05-03 21:57 | 50.42858 | -1.28747 | 20982 ft | 386 kts | 30° |
| 2026-05-03 21:57 | 50.44955 | -1.26167 | 20558 ft | 382 kts | 49° |
| 2026-05-03 21:57 | 50.46484 | -1.22801 | 20122 ft | 378 kts | 61° |
| 2026-05-03 21:58 | 50.47826 | -1.19264 | 19680 ft | 376 kts | 61° |
| 2026-05-03 21:58 | 50.49156 | -1.15743 | 19232 ft | 373 kts | 61° |
| 2026-05-03 21:58 | 50.50475 | -1.12249 | 18786 ft | 371 kts | 61° |
| 2026-05-03 21:58 | 50.51768 | -1.08823 | 18333 ft | 368 kts | 61° |
| 2026-05-03 21:59 | 50.53069 | -1.05376 | 17839 ft | 366 kts | 61° |
| 2026-05-03 21:59 | 50.54361 | -1.01955 | 17387 ft | 362 kts | 61° |
| 2026-05-03 21:59 | 50.55638 | -0.98570 | 16928 ft | 359 kts | 61° |
| 2026-05-03 21:59 | 50.56906 | -0.95209 | 16472 ft | 356 kts | 61° |
| 2026-05-03 22:00 | 50.58163 | -0.91878 | 16004 ft | 353 kts | 60° |
| 2026-05-03 22:00 | 50.59408 | -0.88577 | 15564 ft | 349 kts | 60° |
| 2026-05-03 22:00 | 50.60641 | -0.85299 | 15116 ft | 346 kts | 60° |
| 2026-05-03 22:00 | 50.61859 | -0.82052 | 14663 ft | 343 kts | 61° |
| 2026-05-03 22:01 | 50.63068 | -0.78829 | 14222 ft | 341 kts | 61° |
| 2026-05-03 22:01 | 50.64267 | -0.75623 | 13776 ft | 338 kts | 61° |
| 2026-05-03 22:01 | 50.65453 | -0.72447 | 13303 ft | 335 kts | 61° |
| 2026-05-03 22:01 | 50.66631 | -0.69293 | 12861 ft | 332 kts | 61° |
| 2026-05-03 22:02 | 50.67799 | -0.66165 | 12430 ft | 330 kts | 61° |
| 2026-05-03 22:02 | 50.68958 | -0.63057 | 11997 ft | 328 kts | 61° |
| 2026-05-03 22:02 | 50.70108 | -0.59966 | 11565 ft | 326 kts | 61° |
| 2026-05-03 22:02 | 50.71251 | -0.56890 | 11125 ft | 324 kts | 61° |
| 2026-05-03 22:03 | 50.72385 | -0.53832 | 10695 ft | 322 kts | 61° |
| 2026-05-03 22:03 | 50.73507 | -0.50806 | 10405 ft | 315 kts | 60° |
| 2026-05-03 22:03 | 50.74594 | -0.47870 | 10190 ft | 306 kts | 61° |
| 2026-05-03 22:03 | 50.75653 | -0.44996 | 9921 ft | 301 kts | 61° |
| 2026-05-03 22:04 | 50.76701 | -0.42152 | 9772 ft | 299 kts | 61° |
| 2026-05-03 22:04 | 50.77748 | -0.39306 | 9645 ft | 299 kts | 61° |
| 2026-05-03 22:04 | 50.78791 | -0.36471 | 9439 ft | 300 kts | 61° |
| 2026-05-03 22:04 | 50.79838 | -0.33625 | 8991 ft | 299 kts | 60° |
| 2026-05-03 22:05 | 50.80884 | -0.30787 | 8569 ft | 297 kts | 60° |
| 2026-05-03 22:05 | 50.81923 | -0.27967 | 8123 ft | 297 kts | 61° |
| 2026-05-03 22:05 | 50.82948 | -0.25176 | 7927 ft | 288 kts | 61° |
| 2026-05-03 22:05 | 50.83924 | -0.22520 | 7929 ft | 271 kts | 61° |
| 2026-05-03 22:06 | 50.84846 | -0.20009 | 7944 ft | 260 kts | 61° |
| 2026-05-03 22:06 | 50.85749 | -0.17537 | 7944 ft | 259 kts | 61° |
| 2026-05-03 22:06 | 50.86650 | -0.15069 | 7944 ft | 259 kts | 61° |
| 2026-05-03 22:06 | 50.87550 | -0.12598 | 7943 ft | 259 kts | 61° |
| 2026-05-03 22:07 | 50.88447 | -0.10129 | 7937 ft | 259 kts | 61° |
| 2026-05-03 22:07 | 50.89382 | -0.07699 | 7938 ft | 259 kts | 51° |
| 2026-05-03 22:07 | 50.90645 | -0.05667 | 7935 ft | 259 kts | 42° |
| 2026-05-03 22:07 | 50.91981 | -0.03796 | 7956 ft | 249 kts | 41° |
| 2026-05-03 22:08 | 50.93253 | -0.02044 | 7934 ft | 237 kts | 41° |
| 2026-05-03 22:08 | 50.94492 | -0.00341 | 7937 ft | 235 kts | 41° |
| 2026-05-03 22:08 | 50.95720 | 0.01355 | 7945 ft | 234 kts | 41° |
| 2026-05-03 22:08 | 50.96933 | 0.03039 | 7779 ft | 235 kts | 41° |
| 2026-05-03 22:09 | 50.98155 | 0.04736 | 7483 ft | 232 kts | 41° |
| 2026-05-03 22:09 | 50.99365 | 0.06417 | 7190 ft | 230 kts | 41° |
| 2026-05-03 22:09 | 51.00568 | 0.08086 | 6894 ft | 229 kts | 41° |
| 2026-05-03 22:10 | 51.02955 | 0.11399 | 6326 ft | 227 kts | 41° |
| 2026-05-03 22:10 | 51.04145 | 0.13047 | 5956 ft | 227 kts | 41° |
| 2026-05-03 22:10 | 51.05337 | 0.14701 | 5578 ft | 228 kts | 41° |
| 2026-05-03 22:10 | 51.06528 | 0.16354 | 5203 ft | 227 kts | 41° |
| 2026-05-03 22:11 | 51.07719 | 0.18008 | 4830 ft | 227 kts | 41° |
| 2026-05-03 22:11 | 51.08977 | 0.19464 | 4500 ft | 223 kts | 21° |
| 2026-05-03 22:11 | 51.10474 | 0.19738 | 4248 ft | 217 kts | 352° |
| 2026-05-03 22:11 | 51.11952 | 0.19325 | 4019 ft | 215 kts | 347° |
| 2026-05-03 22:12 | 51.13411 | 0.18823 | 3817 ft | 214 kts | 346° |
| 2026-05-03 22:12 | 51.14836 | 0.18323 | 3648 ft | 203 kts | 346° |
| 2026-05-03 22:12 | 51.16141 | 0.17686 | 3498 ft | 192 kts | 327° |
| 2026-05-03 22:12 | 51.16995 | 0.16126 | 3361 ft | 188 kts | 296° |
| 2026-05-03 22:13 | 51.17551 | 0.14247 | 3229 ft | 187 kts | 292° |
| 2026-05-03 22:13 | 51.18060 | 0.12348 | 3130 ft | 186 kts | 291° |
| 2026-05-03 22:13 | 51.18525 | 0.10422 | 3049 ft | 185 kts | 281° |
| 2026-05-03 22:13 | 51.18548 | 0.08391 | 3045 ft | 184 kts | 258° |
| 2026-05-03 22:14 | 51.18368 | 0.07071 | 3038 ft | 184 kts | 257° |
| 2026-05-03 22:14 | 51.18104 | 0.05118 | 2994 ft | 178 kts | 257° |
| 2026-05-03 22:14 | 51.17847 | 0.03213 | 2821 ft | 175 kts | 257° |
| 2026-05-03 22:14 | 51.17593 | 0.01342 | 2595 ft | 170 kts | 257° |
| 2026-05-03 22:15 | 51.17347 | -0.00475 | 2368 ft | 166 kts | 257° |
| 2026-05-03 22:15 | 51.17105 | -0.02255 | 2135 ft | 163 kts | 257° |
| 2026-05-03 22:15 | 51.16866 | -0.04017 | 1918 ft | 162 kts | 257° |
| 2026-05-03 22:15 | 51.16628 | -0.05763 | 1711 ft | 161 kts | 257° |
| 2026-05-03 22:16 | 51.16392 | -0.07493 | 1480 ft | 158 kts | 257° |
| 2026-05-03 22:16 | 51.16164 | -0.09171 | 1297 ft | 152 kts | 257° |
| 2026-05-03 22:16 | 51.15944 | -0.10776 | 1067 ft | 146 kts | 257° |
| 2026-05-03 22:16 | 51.15730 | -0.12347 | 857 ft | 145 kts | 257° |
| 2026-05-03 22:17 | 51.15516 | -0.13906 | 665 ft | 144 kts | 256° |
| 2026-05-03 22:17 | 51.15303 | -0.15459 | 470 ft | 143 kts | 256° |
| 2026-05-03 22:17 | 51.15092 | -0.17008 | 268 ft | 143 kts | 256° |
| 2026-05-03 22:17 | 51.14888 | -0.18456 | 204 ft | 107 kts | 258° |
| 2026-05-03 22:18 | 51.14794 | -0.19176 | 211 ft | 41 kts | 257° |
| 2026-05-03 22:18 | 51.14785 | -0.19534 | 215 ft | 23 kts | 282° |
| 2026-05-03 22:18 | 51.14815 | -0.19758 | 208 ft | 16 kts | 282° |
| 2026-05-03 22:18 | 51.14849 | -0.19885 | 214 ft | 9 kts | 324° |
| 2026-05-03 22:19 | 51.14890 | -0.19853 | 205 ft | 8 kts | 77° |
| 2026-05-03 22:19 | 51.14898 | -0.19769 | 211 ft | 8 kts | 82° |
| 2026-05-03 22:19 | 51.14907 | -0.19680 | 209 ft | 9 kts | 78° |
| 2026-05-03 22:19 | 51.14920 | -0.19577 | 206 ft | 10 kts | 77° |
| 2026-05-03 22:20 | 51.14937 | -0.19458 | 209 ft | 12 kts | 77° |
| 2026-05-03 22:20 | 51.14956 | -0.19333 | 212 ft | 12 kts | 77° |
| 2026-05-03 22:20 | 51.14975 | -0.19196 | 210 ft | 14 kts | 77° |
| 2026-05-03 22:20 | 51.14998 | -0.19029 | 203 ft | 17 kts | 77° |
| 2026-05-03 22:21 | 51.15024 | -0.18839 | 206 ft | 18 kts | 78° |
| 2026-05-03 22:21 | 51.15051 | -0.18634 | 204 ft | 19 kts | 78° |
| 2026-05-03 22:21 | 51.15080 | -0.18422 | 205 ft | 20 kts | 77° |
| 2026-05-03 22:21 | 51.15112 | -0.18203 | 205 ft | 20 kts | 77° |
| 2026-05-03 22:22 | 51.15142 | -0.17988 | 206 ft | 20 kts | 77° |
| 2026-05-03 22:22 | 51.15170 | -0.17771 | 206 ft | 19 kts | 81° |
| 2026-05-03 22:22 | 51.15198 | -0.17578 | 207 ft | 17 kts | 76° |
| 2026-05-03 22:22 | 51.15223 | -0.17405 | 208 ft | 15 kts | 77° |
| 2026-05-03 22:23 | 51.15244 | -0.17258 | 204 ft | 12 kts | 78° |
| 2026-05-03 22:23 | 51.15260 | -0.17135 | 213 ft | 10 kts | 78° |
| 2026-05-03 22:23 | 51.15274 | -0.17027 | 209 ft | 10 kts | 78° |
| 2026-05-03 22:23 | 51.15288 | -0.16926 | 204 ft | 9 kts | 77° |
| 2026-05-03 22:24 | 51.15301 | -0.16829 | 207 ft | 9 kts | 77° |
| 2026-05-03 22:24 | 51.15316 | -0.16727 | 204 ft | 9 kts | 70° |
| 2026-05-03 22:24 | 51.15349 | -0.16645 | 209 ft | 9 kts | 67° |
| 2026-05-03 22:24 | 51.15361 | -0.16555 | 215 ft | 8 kts | 80° |
| 2026-05-03 22:25 | 51.15390 | -0.16501 | 204 ft | 6 kts | 10° |
| 2026-05-03 22:25 | 51.15426 | -0.16509 | 209 ft | 5 kts | 350° |
| 2026-05-03 22:25 | 51.15457 | -0.16518 | 208 ft | 4 kts | 349° |
| 2026-05-03 22:25 | 51.15485 | -0.16523 | 204 ft | 4 kts | 356° |
| 2026-05-03 22:26 | 51.15519 | -0.16528 | 206 ft | 5 kts | 350° |
| 2026-05-03 22:26 | 51.15539 | -0.16535 | 215 ft | 1 kts | 348° |
| 2026-05-03 22:26 | 51.15540 | -0.16535 | 204 ft | 0 kts | 348° |